This is the latest recevied weather packets stored in our database for station/object HK6REC-20. If no packets are shown the sender has not sent any weather packets the latest 10 day(s).
| Time | Temp. | Humidity | Pressure | Rain* | Wind** | Luminosity | Snow |
|---|---|---|---|---|---|---|---|
| 1777932899 | 20° C | 84% | 1013 hPa | 0 mm | - | - | - |
| 1777931698 | 20° C | 84% | 1012 hPa | 0 mm | - | - | - |
| 1777930497 | 20° C | 85% | 1012 hPa | 0 mm | - | - | - |
| 1777929296 | 20° C | 86% | 1010 hPa | 0 mm | - | - | - |
| 1777928095 | 20.56° C | 87% | 1010 hPa | 0 mm | - | - | - |
| 1777926894 | 20.56° C | 88% | 1010 hPa | 0 mm | - | - | - |
| 1777925693 | 20.56° C | 91% | 1010 hPa | 0 mm | - | - | - |
| 1777924492 | 20° C | 98% | 1010 hPa | 0 mm | - | - | - |
| 1777923291 | 20° C | 10% | - | 0 mm | - | - | - |
| 1777922090 | 20° C | 10% | - | 0 mm | - | - | - |
| 1777920889 | 20° C | 88% | 1010 hPa | 0 mm | - | - | - |
| 1777919688 | 20° C | 88% | 1011 hPa | 0 mm | - | - | - |
| 1777918487 | 21.67° C | 82% | 1012 hPa | 0 mm | - | - | - |
| 1777917287 | 22.78° C | 76% | 1012 hPa | 0 mm | - | - | - |
| 1777916085 | 23.89° C | 75% | 1014 hPa | 0 mm | - | - | - |
| 1777914884 | 23.33° C | 76% | 1014 hPa | 0 mm | - | - | - |
| 1777913683 | 22.78° C | 79% | 1013 hPa | 0 mm | - | - | - |
| 1777912482 | 22.78° C | 79% | 1013 hPa | 0 mm | - | - | - |
| 1777911281 | 22.22° C | 80% | 1015 hPa | 0 mm | - | - | - |
| 1777910081 | 22.22° C | 80% | 1014 hPa | 0 mm | - | - | - |
| 1777908880 | 22.22° C | 78% | 1014 hPa | 0 mm | - | - | - |
| 1777907679 | 22.22° C | 78% | 1016 hPa | 0 mm | - | - | - |
| 1777906477 | 18.89° C | 10% | - | 0 mm | - | - | - |
| 1777905277 | 18.89° C | 99% | 1015 hPa | 0 mm | - | - | - |
| 1777904076 | 18.33° C | 98% | 1016 hPa | 0 mm | - | - | - |
* Rain latest hour (hover to see other rain measurements)
** Current wind speed in m/s (hover to see current wind gust speed)